Sarah C. — WDD9226 — position and weather

sailwx.info

Track history (hours):
 
Tides and Currents Weather Stations Pressure Air Temp Water Temp Dewpoint Dewpoint Depression Visibility Wind Speed Wind Dir Waves Ship Positions

Sarah C.

Owner: Curtin Maritime Corporation, Long Beach, CA. More information available from US FCC via Universal Licensing System and Coast Guard Vessel Documentation Center.

Last reported at 2017-Dec-16 08:17 UTC. Time now 2017-Dec-18 20:44 UTC.
Position N 33°46' W 118°13'.

Length 20 m; draft 3 m.

Type: Towing. MMSI: 367308610.

Date/timePositionNaut miles runAvg speedWind from/ knotsBaromVisibWave heightAir tempDewpointWater temp
2017-Dec-16 08:17N 33°46' W 118°13'0 0.0
2017-Dec-16 07:49N 33°46' W 118°13'0 0.0
2017-Dec-16 07:28N 33°46' W 118°13'0 0.0
2017-Dec-16 07:00N 33°46' W 118°13'0 0.0
2017-Dec-16 06:30N 33°46' W 118°13'0 0.0
2017-Dec-16 06:00N 33°46' W 118°13'4 0.1
2017-Dec-14 02:26N 33°43' W 118°15'3 7.7
2017-Dec-14 02:00N 33°41' W 118°18'5 8.9
2017-Dec-14 01:30N 33°43' W 118°23'5 8.5
2017-Dec-14 00:56N 33°46' W 118°28'4 8.3
2017-Dec-14 00:29N 33°47' W 118°32'4 8.3
2017-Dec-13 23:57N 33°49' W 118°37'4 8.2
2017-Dec-13 23:30N 33°51' W 118°41'4 8.3
2017-Dec-13 23:00N 33°53' W 118°45'5 8.3
2017-Dec-13 22:27N 33°55' W 118°50'4 8.2
2017-Dec-13 21:57N 33°57' W 118°55'4 8.0
2017-Dec-13 21:26N 33°59' W 118°59'4 8.1
2017-Dec-13 20:58N 34°00' W 119°03'4 8.0
2017-Dec-13 20:29N 34°02' W 119°08'4 7.7
2017-Dec-13 19:59N 34°03' W 119°12'4 7.9
2017-Dec-13 19:30N 34°05' W 119°16'4 8.0
2017-Dec-13 18:59N 34°06' W 119°21'4 7.9
2017-Dec-13 18:30N 34°07' W 119°25'4 7.9
2017-Dec-13 17:59N 34°09' W 119°30'4 7.8
2017-Dec-13 17:30N 34°10' W 119°34'4 7.8
2017-Dec-13 16:59N 34°11' W 119°39'4 7.7
2017-Dec-13 16:30N 34°12' W 119°43'4 7.9
2017-Dec-13 16:00N 34°13' W 119°48'4 7.9
2017-Dec-13 15:29N 34°14' W 119°52'4 8.2
2017-Dec-13 15:00N 34°15' W 119°57'4 8.4
2017-Dec-13 14:29N 34°16' W 120°02'4 8.2
2017-Dec-13 14:00N 34°17' W 120°07'4 7.8
2017-Dec-13 13:30N 34°18' W 120°11'4 7.5
2017-Dec-13 13:00N 34°19' W 120°16'4 7.8
2017-Dec-13 12:28N 34°20' W 120°21'4 8.3
2017-Dec-13 12:00N 34°22' W 120°25'4 8.4
2017-Dec-13 11:30N 34°23' W 120°30'4 8.3
2017-Dec-13 11:00N 34°24' W 120°35'4 8.3
2017-Dec-13 10:30N 34°25' W 120°40'4 8.1
2017-Dec-13 09:59N 34°26' W 120°44'4 8.0
2017-Dec-13 09:30N 34°27' W 120°49'4 8.2
2017-Dec-13 08:59N 34°30' W 120°53'4 8.2
2017-Dec-13 08:30N 34°32' W 120°57'4 8.1
2017-Dec-13 08:00N 34°36' W 120°60'4 8.6
2017-Dec-13 07:30N 34°39' W 121°02'4 8.7
2017-Dec-13 07:00N 34°43' W 121°05'4 8.6
2017-Dec-13 06:30N 34°47' W 121°06'4 8.4
2017-Dec-13 06:00N 34°51' W 121°08'4 8.6
2017-Dec-13 05:30N 34°55' W 121°11'4 8.3
2017-Dec-13 05:00N 34°59' W 121°13'4 8.4
2017-Dec-13 04:30N 35°03' W 121°15'4 8.5
2017-Dec-13 04:00N 35°06' W 121°18'4 8.4
2017-Dec-13 03:30N 35°10' W 121°20'4 8.2
2017-Dec-13 03:00N 35°14' W 121°22'4 8.2
2017-Dec-13 02:30N 35°18' W 121°24'4 8.2
2017-Dec-13 02:00N 35°22' W 121°25'4 8.1
2017-Dec-13 01:30N 35°25' W 121°27'4 8.1
2017-Dec-13 01:00N 35°29' W 121°30'4 8.4
2017-Dec-13 00:30N 35°33' W 121°32'4 8.3
2017-Dec-13 00:00N 35°37' W 121°34'4 8.1
2017-Dec-12 23:30N 35°40' W 121°36'4 8.1
2017-Dec-12 23:00N 35°44' W 121°38'4 8.2
2017-Dec-12 22:30N 35°48' W 121°40'4 8.6
2017-Dec-12 22:00N 35°51' W 121°42'4 8.3
2017-Dec-12 21:30N 35°55' W 121°45'4 8.2
2017-Dec-12 21:00N 35°59' W 121°47'4 8.6
2017-Dec-12 20:30N 36°02' W 121°50'4 8.1
2017-Dec-12 20:00N 36°06' W 121°53'4 8.4
2017-Dec-12 19:30N 36°09' W 121°55'4 8.1
2017-Dec-12 19:00N 36°13' W 121°58'4 8.3
2017-Dec-12 18:30N 36°17' W 122°00'4 8.4
2017-Dec-12 18:00N 36°20' W 122°03'4 8.2
2017-Dec-12 17:30N 36°24' W 122°05'4 8.2
2017-Dec-12 17:00N 36°27' W 122°08'4 8.0
2017-Dec-12 16:30N 36°31' W 122°11'4 8.0
2017-Dec-12 16:00N 36°34' W 122°13'4 8.0
2017-Dec-12 15:30N 36°38' W 122°16'4 8.3
2017-Dec-12 15:00N 36°41' W 122°18'4 8.1
2017-Dec-12 14:30N 36°45' W 122°21'4 8.0
2017-Dec-12 14:00N 36°48' W 122°23'4 7.7
2017-Dec-12 13:30N 36°52' W 122°25'4 7.1
2017-Dec-12 13:00N 36°55' W 122°28'4 7.2
2017-Dec-12 12:30N 36°58' W 122°30'4 7.6
2017-Dec-12 12:00N 37°01' W 122°32'4 8.2
2017-Dec-12 11:30N 37°05' W 122°35'4 8.0
2017-Dec-12 11:00N 37°08' W 122°38'4 8.3
2017-Dec-12 10:30N 37°12' W 122°38'4 8.3
2017-Dec-12 10:00N 37°16' W 122°38'4 8.6
2017-Dec-12 09:30N 37°21' W 122°38'4 8.4
2017-Dec-12 09:00N 37°25' W 122°38'4 8.2
2017-Dec-12 08:30N 37°29' W 122°38'4 8.3
2017-Dec-12 08:00N 37°33' W 122°38'4 8.5
2017-Dec-12 07:30N 37°37' W 122°38'4 8.3
2017-Dec-12 07:00N 37°41' W 122°38'4 8.1
2017-Dec-12 06:30N 37°45' W 122°38'5 9.4
2017-Dec-12 06:00N 37°48' W 122°33'510.2
2017-Dec-12 05:30N 37°51' W 122°27'4 8.8
2017-Dec-12 05:00N 37°55' W 122°26'4 8.3
2017-Dec-12 04:29N 37°59' W 122°25'4 7.9
2017-Dec-12 04:00N 38°02' W 122°22'4 7.8
2017-Dec-12 03:30N 38°03' W 122°17'3 0.2
2017-Dec-11 14:27N 38°06' W 122°16'0 0.0
2017-Dec-11 13:57N 38°06' W 122°16'0 0.0
2017-Dec-11 11:27N 38°06' W 122°16'0 0.0
2017-Dec-11 10:57N 38°06' W 122°16'0 0.0
2017-Dec-11 10:15N 38°06' W 122°16'0 0.0
2017-Dec-11 09:51N 38°06' W 122°16'0 0.0
2017-Dec-11 08:09N 38°06' W 122°16'0 0.0
2017-Dec-11 07:51N 38°06' W 122°16'0 0.0
2017-Dec-11 07:27N 38°06' W 122°16'0 0.0
2017-Dec-11 06:57N 38°06' W 122°16'0 0.0
2017-Dec-10 17:21N 38°06' W 122°16'0 0.0
2017-Dec-10 16:57N 38°06' W 122°16'0 0.0
2017-Dec-10 16:27N 38°06' W 122°16'0 0.0
2017-Dec-10 15:57N 38°06' W 122°16'0 0.0
2017-Dec-10 15:27N 38°06' W 122°16'0 0.0
2017-Dec-10 12:21N 38°06' W 122°16'0 0.0
2017-Dec-10 07:45N 38°06' W 122°16'  
Track history (hours):
 
Tides and Currents Weather Stations Pressure Air Temp Water Temp Dewpoint Dewpoint Depression Visibility Wind Speed Wind Dir Waves Ship Positions

Sarah C.

Owner: Curtin Maritime Corporation, Long Beach, CA. More information available from US FCC via Universal Licensing System and Coast Guard Vessel Documentation Center.

Last reported at 2017-Dec-16 08:17 UTC. Time now 2017-Dec-18 20:44 UTC.
Position N 33°46' W 118°13'.

Length 20 m; draft 3 m.

Type: Towing. MMSI: 367308610.

Date/timePositionNaut miles runAvg speedWind from/ knotsBaromVisibWave heightAir tempDewpointWater temp
2017-Dec-16 08:17N 33°46' W 118°13'0 0.0
2017-Dec-16 07:49N 33°46' W 118°13'0 0.0
2017-Dec-16 07:28N 33°46' W 118°13'0 0.0
2017-Dec-16 07:00N 33°46' W 118°13'0 0.0
2017-Dec-16 06:30N 33°46' W 118°13'0 0.0
2017-Dec-16 06:00N 33°46' W 118°13'4 0.1
2017-Dec-14 02:26N 33°43' W 118°15'3 7.7
2017-Dec-14 02:00N 33°41' W 118°18'5 8.9
2017-Dec-14 01:30N 33°43' W 118°23'5 8.5
2017-Dec-14 00:56N 33°46' W 118°28'4 8.3
2017-Dec-14 00:29N 33°47' W 118°32'4 8.3
2017-Dec-13 23:57N 33°49' W 118°37'4 8.2
2017-Dec-13 23:30N 33°51' W 118°41'4 8.3
2017-Dec-13 23:00N 33°53' W 118°45'5 8.3
2017-Dec-13 22:27N 33°55' W 118°50'4 8.2
2017-Dec-13 21:57N 33°57' W 118°55'4 8.0
2017-Dec-13 21:26N 33°59' W 118°59'4 8.1
2017-Dec-13 20:58N 34°00' W 119°03'4 8.0
2017-Dec-13 20:29N 34°02' W 119°08'4 7.7
2017-Dec-13 19:59N 34°03' W 119°12'4 7.9
2017-Dec-13 19:30N 34°05' W 119°16'4 8.0
2017-Dec-13 18:59N 34°06' W 119°21'4 7.9
2017-Dec-13 18:30N 34°07' W 119°25'4 7.9
2017-Dec-13 17:59N 34°09' W 119°30'4 7.8
2017-Dec-13 17:30N 34°10' W 119°34'4 7.8
2017-Dec-13 16:59N 34°11' W 119°39'4 7.7
2017-Dec-13 16:30N 34°12' W 119°43'4 7.9
2017-Dec-13 16:00N 34°13' W 119°48'4 7.9
2017-Dec-13 15:29N 34°14' W 119°52'4 8.2
2017-Dec-13 15:00N 34°15' W 119°57'4 8.4
2017-Dec-13 14:29N 34°16' W 120°02'4 8.2
2017-Dec-13 14:00N 34°17' W 120°07'4 7.8
2017-Dec-13 13:30N 34°18' W 120°11'4 7.5
2017-Dec-13 13:00N 34°19' W 120°16'4 7.8
2017-Dec-13 12:28N 34°20' W 120°21'4 8.3
2017-Dec-13 12:00N 34°22' W 120°25'4 8.4
2017-Dec-13 11:30N 34°23' W 120°30'4 8.3
2017-Dec-13 11:00N 34°24' W 120°35'4 8.3
2017-Dec-13 10:30N 34°25' W 120°40'4 8.1
2017-Dec-13 09:59N 34°26' W 120°44'4 8.0
2017-Dec-13 09:30N 34°27' W 120°49'4 8.2
2017-Dec-13 08:59N 34°30' W 120°53'4 8.2
2017-Dec-13 08:30N 34°32' W 120°57'4 8.1
2017-Dec-13 08:00N 34°36' W 120°60'4 8.6
2017-Dec-13 07:30N 34°39' W 121°02'4 8.7
2017-Dec-13 07:00N 34°43' W 121°05'4 8.6
2017-Dec-13 06:30N 34°47' W 121°06'4 8.4
2017-Dec-13 06:00N 34°51' W 121°08'4 8.6
2017-Dec-13 05:30N 34°55' W 121°11'4 8.3
2017-Dec-13 05:00N 34°59' W 121°13'4 8.4
2017-Dec-13 04:30N 35°03' W 121°15'4 8.5
2017-Dec-13 04:00N 35°06' W 121°18'4 8.4
2017-Dec-13 03:30N 35°10' W 121°20'4 8.2
2017-Dec-13 03:00N 35°14' W 121°22'4 8.2
2017-Dec-13 02:30N 35°18' W 121°24'4 8.2
2017-Dec-13 02:00N 35°22' W 121°25'4 8.1
2017-Dec-13 01:30N 35°25' W 121°27'4 8.1
2017-Dec-13 01:00N 35°29' W 121°30'4 8.4
2017-Dec-13 00:30N 35°33' W 121°32'4 8.3
2017-Dec-13 00:00N 35°37' W 121°34'4 8.1
2017-Dec-12 23:30N 35°40' W 121°36'4 8.1
2017-Dec-12 23:00N 35°44' W 121°38'4 8.2
2017-Dec-12 22:30N 35°48' W 121°40'4 8.6
2017-Dec-12 22:00N 35°51' W 121°42'4 8.3
2017-Dec-12 21:30N 35°55' W 121°45'4 8.2
2017-Dec-12 21:00N 35°59' W 121°47'4 8.6
2017-Dec-12 20:30N 36°02' W 121°50'4 8.1
2017-Dec-12 20:00N 36°06' W 121°53'4 8.4
2017-Dec-12 19:30N 36°09' W 121°55'4 8.1
2017-Dec-12 19:00N 36°13' W 121°58'4 8.3
2017-Dec-12 18:30N 36°17' W 122°00'4 8.4
2017-Dec-12 18:00N 36°20' W 122°03'4 8.2
2017-Dec-12 17:30N 36°24' W 122°05'4 8.2
2017-Dec-12 17:00N 36°27' W 122°08'4 8.0
2017-Dec-12 16:30N 36°31' W 122°11'4 8.0
2017-Dec-12 16:00N 36°34' W 122°13'4 8.0
2017-Dec-12 15:30N 36°38' W 122°16'4 8.3
2017-Dec-12 15:00N 36°41' W 122°18'4 8.1
2017-Dec-12 14:30N 36°45' W 122°21'4 8.0
2017-Dec-12 14:00N 36°48' W 122°23'4 7.7
2017-Dec-12 13:30N 36°52' W 122°25'4 7.1
2017-Dec-12 13:00N 36°55' W 122°28'4 7.2
2017-Dec-12 12:30N 36°58' W 122°30'4 7.6
2017-Dec-12 12:00N 37°01' W 122°32'4 8.2
2017-Dec-12 11:30N 37°05' W 122°35'4 8.0
2017-Dec-12 11:00N 37°08' W 122°38'4 8.3
2017-Dec-12 10:30N 37°12' W 122°38'4 8.3
2017-Dec-12 10:00N 37°16' W 122°38'4 8.6
2017-Dec-12 09:30N 37°21' W 122°38'4 8.4
2017-Dec-12 09:00N 37°25' W 122°38'4 8.2
2017-Dec-12 08:30N 37°29' W 122°38'4 8.3
2017-Dec-12 08:00N 37°33' W 122°38'4 8.5
2017-Dec-12 07:30N 37°37' W 122°38'4 8.3
2017-Dec-12 07:00N 37°41' W 122°38'4 8.1
2017-Dec-12 06:30N 37°45' W 122°38'5 9.4
2017-Dec-12 06:00N 37°48' W 122°33'510.2
2017-Dec-12 05:30N 37°51' W 122°27'4 8.8
2017-Dec-12 05:00N 37°55' W 122°26'4 8.3
2017-Dec-12 04:29N 37°59' W 122°25'4 7.9
2017-Dec-12 04:00N 38°02' W 122°22'4 7.8
2017-Dec-12 03:30N 38°03' W 122°17'3 0.2
2017-Dec-11 14:27N 38°06' W 122°16'0 0.0
2017-Dec-11 13:57N 38°06' W 122°16'0 0.0
2017-Dec-11 11:27N 38°06' W 122°16'0 0.0
2017-Dec-11 10:57N 38°06' W 122°16'0 0.0
2017-Dec-11 10:15N 38°06' W 122°16'0 0.0
2017-Dec-11 09:51N 38°06' W 122°16'0 0.0
2017-Dec-11 08:09N 38°06' W 122°16'0 0.0
2017-Dec-11 07:51N 38°06' W 122°16'0 0.0
2017-Dec-11 07:27N 38°06' W 122°16'0 0.0
2017-Dec-11 06:57N 38°06' W 122°16'0 0.0
2017-Dec-10 17:21N 38°06' W 122°16'0 0.0
2017-Dec-10 16:57N 38°06' W 122°16'0 0.0
2017-Dec-10 16:27N 38°06' W 122°16'0 0.0
2017-Dec-10 15:57N 38°06' W 122°16'0 0.0
2017-Dec-10 15:27N 38°06' W 122°16'0 0.0
2017-Dec-10 12:21N 38°06' W 122°16'0 0.0
2017-Dec-10 07:45N 38°06' W 122°16'  

Dump ship's entire track history